Terminal Aerodrome Forecast
Issued by NWS

Home | Current Version | Previous Version | Graphics & Text | Print | Product List | Glossary On
Versions: 1 2 3 4 5 6 7 8 9 10 11 12 13 14
000
FTUS43 KUNR 252320
TAFGCC
TAF
KGCC 252320Z 2600/2624 03008KT P6SM SCT150
     FM260500 17010KT P6SM BKN150
     FM262000 19012KT P6SM VCTS BKN100CB=

USA.gov is the U.S. government's official web portal to all federal, state and local government web resources and services.